Ferdig, Montana
Current Conditions -  °F | °C
As of 2:56 PM on Tuesday 25 Nov 2014 (Local Time) from KCTB Reporting Station
Overcast Overcast  
Wind Chill: 25°   Ceiling: 5000
Heat Index: 34°   Visibility: 10mi
Dew Point: 20°   Wind: 12mph
Humidity: 56%   Direction: 360°N
Pressure: 30.06"   Gusts: NA
Location:  48.7543°N, 111.774°W
Report Text: KCTB 252156Z AUTO 36010KT 10SM OVC050 01/M07 A3006 RMK AO2 SLP202 T00111067
Loading
Personal Weather Stations






























Interactive Weather Map New forecast layout! Learn more

10-Day Weather Forecast

Advertisements
Track Severe Weather on mobile